createdAt,value
2023-03-16T07:11:15.098Z,96782.09
2023-03-16T07:12:16.473Z,96781.72
2023-03-16T07:13:18.330Z,96778.25
2023-03-16T07:14:19.979Z,96792.78
2023-03-16T07:15:21.857Z,96779.81
2023-03-16T07:16:23.594Z,96784.19
2023-03-16T07:17:24.993Z,96782.59
2023-03-16T07:18:26.476Z,96788.66
2023-03-16T07:19:28.871Z,96788.38
2023-03-16T07:20:32.857Z,96788.19
2023-03-16T07:21:39.234Z,96784.59
2023-03-16T07:22:41.733Z,96775.22
2023-03-16T07:23:43.174Z,96784.28
2023-03-16T07:24:45.173Z,96785.78
2023-03-16T07:25:46.535Z,96794.88
2023-03-16T07:26:48.011Z,96798.94
2023-03-16T07:27:49.386Z,96789.38
2023-03-16T07:28:50.764Z,96794.66
2023-03-16T07:29:52.332Z,96788.25
2023-03-16T07:31:03.345Z,96784.53
2023-03-16T07:32:05.891Z,96791.91
2023-03-16T07:33:07.394Z,96793.25
2023-03-16T07:34:08.911Z,96789.88
2023-03-16T07:35:11.569Z,96790.50
2023-03-16T07:36:13.189Z,96790.88
2023-03-16T07:37:17.139Z,96798.13
2023-03-16T07:38:18.637Z,96799.88
2023-03-16T07:39:20.113Z,96794.84
2023-03-16T07:40:21.563Z,96789.66
2023-03-16T07:41:23.196Z,96791.69
2023-03-16T07:42:24.609Z,96796.00
2023-03-16T07:43:26.028Z,96794.34
2023-03-16T07:44:28.094Z,96786.38
2023-03-16T07:45:29.915Z,96784.00
2023-03-16T07:46:32.637Z,96797.84
2023-03-16T07:47:34.174Z,96790.75
2023-03-16T07:48:35.575Z,96787.63
2023-03-16T07:49:37.083Z,96794.97
2023-03-16T07:50:38.521Z,96784.81
2023-03-16T07:51:40.948Z,96788.25
2023-03-16T07:52:42.866Z,96788.44
2023-03-16T07:53:44.286Z,96795.56
2023-03-16T07:54:45.711Z,96797.47
2023-03-16T07:55:47.122Z,96793.22
2023-03-16T07:56:49.856Z,96792.66
2023-03-16T07:57:51.509Z,96784.84
2023-03-16T07:58:52.867Z,96794.28
2023-03-16T07:59:54.203Z,96787.22
2023-03-16T08:01:00.824Z,96789.53
2023-03-16T08:02:02.421Z,96780.84
2023-03-16T08:03:03.873Z,96796.44
2023-03-16T08:04:05.458Z,96787.25
2023-03-16T08:05:10.031Z,96790.22
2023-03-16T08:06:12.073Z,96795.72
2023-03-16T08:07:14.860Z,96793.91
2023-03-16T08:08:16.282Z,96796.78
2023-03-16T08:09:18.392Z,96798.22
2023-03-16T08:10:19.903Z,96800.69
2023-03-16T08:11:23.794Z,96800.59
2023-03-16T08:12:25.493Z,96803.50
2023-03-16T08:13:27.307Z,96804.34
2023-03-16T08:14:28.956Z,96796.88
2023-03-16T08:15:33.781Z,96796.19
2023-03-16T08:16:35.819Z,96809.53
2023-03-16T08:17:37.850Z,96792.38
2023-03-16T08:18:39.231Z,96801.53
2023-03-16T08:19:40.970Z,96791.78
2023-03-16T08:20:42.489Z,96792.94
2023-03-16T08:22:00.348Z,96791.50
2023-03-16T08:23:02.061Z,96794.09
2023-03-16T08:24:03.632Z,96788.94
2023-03-16T08:25:07.313Z,96772.75
2023-03-16T08:26:08.867Z,96779.78
2023-03-16T08:27:11.001Z,96769.66
2023-03-16T08:28:12.657Z,96775.47
2023-03-16T08:29:14.414Z,96774.47
2023-03-16T08:30:17.079Z,96785.50
2023-03-16T08:31:20.223Z,96772.97
2023-03-16T08:32:21.627Z,96773.44
2023-03-16T08:33:23.531Z,96772.44
2023-03-16T08:34:25.842Z,96771.53
2023-03-16T08:35:29.011Z,96772.06
2023-03-16T08:36:31.086Z,96764.00
2023-03-16T08:37:32.501Z,96765.22
2023-03-16T08:38:34.199Z,96772.69
2023-03-16T08:39:35.743Z,96766.59
2023-03-16T08:40:37.163Z,96761.38
2023-03-16T08:41:40.589Z,96760.50
2023-03-16T08:42:43.100Z,96760.13
2023-03-16T08:43:44.668Z,96764.34
2023-03-16T08:44:47.674Z,96753.19
2023-03-16T08:45:49.205Z,96751.56
2023-03-16T08:46:51.768Z,96753.91
2023-03-16T08:47:53.797Z,96760.31
2023-03-16T08:48:58.042Z,96763.97
2023-03-16T08:50:00.216Z,96756.25
2023-03-16T08:51:03.459Z,96764.94
2023-03-16T08:52:05.628Z,96763.66
2023-03-16T08:53:07.795Z,96761.19
2023-03-16T08:54:09.146Z,96762.75
2023-03-16T08:55:11.157Z,96761.81
2023-03-16T08:56:14.696Z,96758.41
2023-03-16T08:57:16.198Z,96763.53
2023-03-16T08:58:17.749Z,96744.88
2023-03-16T08:59:29.201Z,96772.75
2023-03-16T09:00:31.626Z,96768.72
2023-03-16T09:01:33.938Z,96768.19
2023-03-16T09:02:38.468Z,96762.78
2023-03-16T09:03:45.957Z,96762.44
2023-03-16T09:04:47.515Z,96757.44
2023-03-16T09:05:49.397Z,96746.66
2023-03-16T09:07:05.892Z,96729.19
2023-03-16T09:08:09.686Z,96753.94
2023-03-16T09:09:11.566Z,96753.91
2023-03-16T09:10:16.228Z,96751.94
2023-03-16T09:11:19.067Z,96761.41
2023-03-16T09:12:22.213Z,96748.66
2023-03-16T09:13:24.477Z,96739.56
2023-03-16T09:14:25.861Z,96751.97
2023-03-16T09:15:27.369Z,96744.22
2023-03-16T09:16:30.921Z,96744.66
2023-03-16T09:17:33.300Z,96755.56
2023-03-16T09:18:36.205Z,96773.84
2023-03-16T09:19:56.269Z,96761.59
2023-03-16T09:21:04.458Z,96776.63
2023-03-16T09:22:06.844Z,96768.34
2023-03-16T09:23:08.298Z,96766.41
2023-03-16T09:24:10.070Z,96765.16
2023-03-16T09:25:11.520Z,96762.47
2023-03-16T09:26:13.532Z,96759.75
2023-03-16T09:27:15.483Z,96757.06
2023-03-16T09:28:18.072Z,96752.84
2023-03-16T09:29:21.720Z,96762.56
2023-03-16T09:30:23.199Z,96757.94
2023-03-16T09:31:24.666Z,96747.69
2023-03-16T09:32:28.139Z,96756.56
2023-03-16T09:33:31.830Z,96751.03
2023-03-16T09:34:33.461Z,96748.59
2023-03-16T09:35:35.971Z,96745.53
2023-03-16T09:36:37.929Z,96737.63
2023-03-16T09:37:45.659Z,96721.63
2023-03-16T09:38:56.810Z,96741.75
2023-03-16T09:40:06.524Z,96747.88
2023-03-16T09:41:30.075Z,96731.03
2023-03-16T09:42:38.385Z,96746.16
2023-03-16T09:44:00.205Z,96742.91
2023-03-16T09:45:32.623Z,96742.88
2023-03-16T09:46:46.096Z,96740.63
2023-03-16T09:47:50.613Z,96747.47
2023-03-16T09:48:53.672Z,96740.28
2023-03-16T09:50:03.040Z,96733.66
2023-03-16T09:51:08.162Z,96738.00
2023-03-16T09:52:20.310Z,96735.97
2023-03-16T09:53:29.624Z,96738.91
2023-03-16T09:54:49.473Z,96750.09
2023-03-16T09:56:03.285Z,96740.84
2023-03-16T09:57:16.504Z,96732.59
2023-03-16T09:58:21.119Z,96731.25
2023-03-16T09:59:23.319Z,96730.06
2023-03-16T10:00:55.804Z,96740.75
2023-03-16T10:02:06.066Z,96730.47
2023-03-16T10:03:25.202Z,96732.81
2023-03-16T10:04:37.608Z,96732.16
2023-03-16T10:05:39.545Z,96728.66
2023-03-16T10:06:52.518Z,96728.19
2023-03-16T10:08:08.995Z,96741.81
2023-03-16T10:09:39.605Z,96732.25
2023-03-16T10:11:23.986Z,96723.53
2023-03-16T10:12:37.480Z,96729.03
2023-03-16T10:13:44.429Z,96726.84
2023-03-16T10:15:09.184Z,96742.25
2023-03-16T10:16:25.739Z,96726.84
2023-03-16T10:17:36.480Z,96717.91
2023-03-16T10:18:50.288Z,96733.66
2023-03-16T10:19:59.262Z,96731.72
2023-03-16T10:21:02.860Z,96726.97
2023-03-16T10:22:17.758Z,96720.59
2023-03-16T10:23:23.545Z,96728.00
2023-03-16T10:24:43.694Z,96724.16
2023-03-16T10:25:50.146Z,96728.03
2023-03-16T10:27:00.275Z,96715.19
2023-03-16T10:28:02.070Z,96716.69
2023-03-16T10:29:04.792Z,96707.16
2023-03-16T10:30:19.492Z,96708.31
2023-03-16T10:31:23.712Z,96706.94
2023-03-16T10:32:29.498Z,96681.00
2023-03-16T10:33:36.688Z,96696.44
2023-03-16T10:34:38.228Z,96700.13
2023-03-16T10:35:51.187Z,96698.56
2023-03-16T10:36:54.521Z,96697.31
2023-03-16T10:37:57.162Z,96708.41
2023-03-16T10:39:02.842Z,96699.13
2023-03-16T10:40:12.714Z,96703.34
2023-03-16T10:41:20.472Z,96691.44
2023-03-16T10:42:22.436Z,96705.59
2023-03-16T10:43:25.073Z,96699.88
2023-03-16T10:44:28.610Z,96686.41
2023-03-16T10:45:32.228Z,96696.19
2023-03-16T10:46:41.261Z,96689.22
2023-03-16T10:47:42.729Z,96688.16
2023-03-16T10:48:53.172Z,96684.59
2023-03-16T10:49:55.648Z,96698.16
2023-03-16T10:50:57.710Z,96696.25
2023-03-16T10:52:00.284Z,96697.84
2023-03-16T10:53:02.786Z,96697.03
2023-03-16T10:54:19.842Z,96694.47
2023-03-16T10:55:24.981Z,96692.25
2023-03-16T10:56:27.340Z,96686.78
2023-03-16T10:57:36.186Z,96695.63
2023-03-16T10:58:42.432Z,96677.94
2023-03-16T10:59:49.603Z,96687.31
2023-03-16T11:00:51.874Z,96690.22
2023-03-16T11:01:54.460Z,96691.03
2023-03-16T11:02:58.240Z,96692.91
2023-03-16T11:04:00.774Z,96694.16
2023-03-16T11:05:33.478Z,96693.03
2023-03-16T11:06:34.893Z,96687.66
2023-03-16T11:07:37.088Z,96691.19
2023-03-16T11:08:39.873Z,96685.78
2023-03-16T11:09:41.324Z,96691.53
2023-03-16T11:10:55.599Z,96678.31
2023-03-16T11:11:57.584Z,96681.78
2023-03-16T11:13:20.299Z,96669.22
2023-03-16T11:14:26.018Z,96683.47
2023-03-16T11:15:36.854Z,96690.44
2023-03-16T11:16:43.962Z,96686.91
2023-03-16T11:17:51.311Z,96687.69
2023-03-16T11:18:58.806Z,96690.91
2023-03-16T11:20:12.290Z,96684.47
2023-03-16T11:21:25.801Z,96682.44
2023-03-16T11:22:30.123Z,96664.94
2023-03-16T11:23:38.906Z,96687.78
2023-03-16T11:24:53.056Z,96684.38
2023-03-16T11:25:58.727Z,96688.66
2023-03-16T11:27:04.559Z,96689.69
2023-03-16T11:28:06.593Z,96684.03
2023-03-16T11:29:18.747Z,96684.28
2023-03-16T11:30:34.101Z,96679.59
2023-03-16T11:31:55.260Z,96669.88
2023-03-16T11:33:00.511Z,96670.00
2023-03-16T11:34:02.782Z,96660.38
2023-03-16T11:35:46.597Z,96665.19
2023-03-16T11:37:04.520Z,96660.09
2023-03-16T11:38:19.016Z,96668.44
2023-03-16T11:39:27.377Z,96659.88
2023-03-16T11:40:41.218Z,96671.09
2023-03-16T11:42:10.080Z,96662.91
2023-03-16T11:43:49.419Z,96655.19
2023-03-16T11:45:12.690Z,96651.97
2023-03-16T11:46:40.317Z,96646.06
2023-03-16T11:48:08.193Z,96640.97
2023-03-16T11:49:38.291Z,96639.47
2023-03-16T11:51:01.906Z,96646.38
2023-03-16T11:52:36.917Z,96639.34
2023-03-16T11:53:55.794Z,96642.72
2023-03-16T11:55:28.876Z,96635.44
2023-03-16T11:56:33.768Z,96632.25
2023-03-16T11:57:38.069Z,96636.22
2023-03-16T11:59:11.413Z,96638.38
2023-03-16T12:00:52.727Z,96634.47
2023-03-16T12:02:09.925Z,96635.78
2023-03-16T12:03:41.076Z,96639.00
2023-03-16T12:04:55.080Z,96635.09
2023-03-16T12:05:59.777Z,96638.34
2023-03-16T12:07:18.222Z,96633.44
2023-03-16T12:08:35.112Z,96628.88
2023-03-16T12:09:58.946Z,96641.50
2023-03-16T12:11:07.677Z,96637.38
2023-03-16T12:12:24.819Z,96633.63
2023-03-16T12:13:38.884Z,96625.66
2023-03-16T12:14:47.139Z,96633.31
2023-03-16T12:15:59.700Z,96641.78
2023-03-16T12:17:09.497Z,96634.94
2023-03-16T12:18:30.331Z,96637.50
2023-03-16T12:20:24.954Z,96635.00
2023-03-16T12:21:40.631Z,96628.28
2023-03-16T12:22:46.028Z,96627.66
2023-03-16T12:23:56.958Z,96626.31
2023-03-16T12:24:58.502Z,96619.47
2023-03-16T12:26:00.878Z,96633.06
2023-03-16T12:27:02.561Z,96629.06
2023-03-16T12:28:15.968Z,96621.25
2023-03-16T12:29:33.571Z,96619.66
2023-03-16T12:30:44.301Z,96616.88
2023-03-16T12:31:55.835Z,96611.53
2023-03-16T12:33:10.178Z,96608.50
2023-03-16T12:34:36.764Z,96607.84
2023-03-16T12:36:09.394Z,96600.66
2023-03-16T12:37:29.117Z,96606.38
2023-03-16T12:38:47.914Z,96603.25
2023-03-16T12:39:57.105Z,96604.44
2023-03-16T12:41:11.336Z,96603.56
2023-03-16T12:42:34.579Z,96608.53
2023-03-16T12:43:42.701Z,96597.03
2023-03-16T12:45:03.680Z,96594.97
2023-03-16T12:46:11.980Z,96592.63
2023-03-16T12:47:24.213Z,96594.69
2023-03-16T12:48:34.006Z,96584.69
2023-03-16T12:49:37.031Z,96591.25
2023-03-16T12:50:57.667Z,96592.78
2023-03-16T12:52:05.961Z,96590.41
2023-03-16T12:53:07.518Z,96585.94
2023-03-16T12:54:26.300Z,96588.50
2023-03-16T12:55:33.501Z,96588.69
2023-03-16T12:56:43.393Z,96586.38
2023-03-16T12:57:47.971Z,96582.41
2023-03-16T12:58:50.661Z,96589.44
2023-03-16T12:59:58.303Z,96564.69
2023-03-16T13:01:00.817Z,96598.50
2023-03-16T13:02:06.664Z,96591.69
2023-03-16T13:03:19.880Z,96588.84
2023-03-16T13:04:32.556Z,96592.63
2023-03-16T13:05:36.368Z,96587.31
2023-03-16T13:06:44.409Z,96588.72
2023-03-16T13:07:51.208Z,96591.63
2023-03-16T13:08:59.765Z,96593.88
2023-03-16T13:10:13.838Z,96590.31
2023-03-16T13:11:16.364Z,96584.78
2023-03-16T13:12:31.471Z,96583.97
2023-03-16T13:13:34.042Z,96584.81
2023-03-16T13:14:44.133Z,96582.81
2023-03-16T13:15:49.635Z,96580.31
2023-03-16T13:16:53.706Z,96562.88
2023-03-16T13:18:10.121Z,96574.66
2023-03-16T13:19:38.466Z,96570.06
2023-03-16T13:20:59.582Z,96573.94
2023-03-16T13:22:19.309Z,96575.63
2023-03-16T13:23:41.483Z,96572.28
2023-03-16T13:24:51.963Z,96571.78
2023-03-16T13:26:12.291Z,96572.25
2023-03-16T13:27:21.337Z,96564.41
2023-03-16T13:28:32.611Z,96576.53
2023-03-16T13:29:34.140Z,96572.34
2023-03-16T13:30:36.872Z,96568.00
2023-03-16T13:31:41.932Z,96574.94
2023-03-16T13:32:43.691Z,96566.47
2023-03-16T13:33:48.089Z,96579.13
2023-03-16T13:34:53.434Z,96574.81
2023-03-16T13:35:57.399Z,96569.38
2023-03-16T13:37:01.362Z,96570.13
2023-03-16T13:38:07.196Z,96564.31
2023-03-16T13:39:18.664Z,96561.03
2023-03-16T13:40:28.064Z,96559.91
2023-03-16T13:41:30.574Z,96560.44
2023-03-16T13:42:33.559Z,96546.81
2023-03-16T13:43:39.472Z,96557.81
2023-03-16T13:44:41.535Z,96553.84
2023-03-16T13:45:43.638Z,96559.03
2023-03-16T13:46:49.105Z,96556.59
2023-03-16T13:47:51.635Z,96561.03
2023-03-16T13:48:52.969Z,96560.59
2023-03-16T13:49:58.149Z,96566.47
2023-03-16T13:50:59.610Z,96568.59
2023-03-16T13:52:03.774Z,96559.38
2023-03-16T13:53:14.696Z,96562.50
2023-03-16T13:54:23.688Z,96555.75
2023-03-16T13:55:36.948Z,96546.81
2023-03-16T13:56:40.106Z,96540.50
2023-03-16T13:57:44.004Z,96549.91
2023-03-16T13:58:49.558Z,96536.81
2023-03-16T13:59:53.487Z,96538.34
2023-03-16T14:01:00.753Z,96546.38
2023-03-16T14:02:02.803Z,96544.53
2023-03-16T14:03:17.726Z,96542.69
2023-03-16T14:04:23.842Z,96537.78
2023-03-16T14:05:27.342Z,96535.94
2023-03-16T14:06:31.420Z,96528.59
2023-03-16T14:07:37.529Z,96532.59
2023-03-16T14:08:41.882Z,96523.59
2023-03-16T14:09:45.158Z,96530.16
2023-03-16T14:10:47.375Z,96528.78
2023-03-16T14:11:48.943Z,96532.94
2023-03-16T14:12:58.664Z,96531.03
2023-03-16T14:14:01.331Z,96518.91
2023-03-16T14:15:05.148Z,96498.63
2023-03-16T14:16:18.635Z,96520.25
2023-03-16T14:17:22.024Z,96512.41
2023-03-16T14:18:32.080Z,96520.31
2023-03-16T14:19:58.605Z,96517.94
2023-03-16T14:21:00.207Z,96509.66
2023-03-16T14:22:04.184Z,96513.41
2023-03-16T14:23:05.795Z,96501.34
2023-03-16T14:24:20.048Z,96509.34
2023-03-16T14:25:25.485Z,96508.81
2023-03-16T14:26:27.190Z,96507.88
2023-03-16T14:27:40.916Z,96502.28
2023-03-16T14:29:06.238Z,96498.75
2023-03-16T14:30:13.690Z,96498.41
2023-03-16T14:31:20.260Z,96499.75
2023-03-16T14:32:28.239Z,96498.56
2023-03-16T14:33:33.627Z,96497.81
2023-03-16T14:34:36.221Z,96491.50
2023-03-16T14:35:44.683Z,96485.63
2023-03-16T14:36:46.232Z,96488.31
2023-03-16T14:37:51.838Z,96483.34
2023-03-16T14:38:54.431Z,96488.47
2023-03-16T14:40:02.509Z,96492.22
2023-03-16T14:41:17.120Z,96489.59
2023-03-16T14:42:30.846Z,96494.88
2023-03-16T14:43:39.024Z,96490.50
2023-03-16T14:44:40.734Z,96485.06
2023-03-16T14:45:42.595Z,96497.53
2023-03-16T14:46:44.124Z,96489.69
2023-03-16T14:47:47.307Z,96500.91
2023-03-16T14:48:48.879Z,96486.97
2023-03-16T14:49:50.889Z,96494.03
2023-03-16T14:50:58.269Z,96497.69
2023-03-16T14:52:08.189Z,96495.47
2023-03-16T14:53:10.132Z,96488.91
2023-03-16T14:54:17.186Z,96488.41
2023-03-16T14:55:20.746Z,96486.69
2023-03-16T14:56:23.207Z,96494.34
2023-03-16T14:57:26.039Z,96494.22
2023-03-16T14:58:27.389Z,96494.16
2023-03-16T14:59:28.798Z,96492.69
2023-03-16T15:00:33.008Z,96492.69
2023-03-16T15:01:37.886Z,96497.28
2023-03-16T15:02:41.151Z,96490.09
2023-03-16T15:03:43.534Z,96477.19
2023-03-16T15:04:46.447Z,96478.13
2023-03-16T15:05:50.571Z,96481.28
2023-03-16T15:06:52.074Z,96456.91
2023-03-16T15:07:55.492Z,96471.13
2023-03-16T15:08:57.353Z,96476.13
2023-03-16T15:10:24.268Z,96478.81
2023-03-16T15:11:26.198Z,96469.13
2023-03-16T15:12:27.622Z,96479.66
2023-03-16T15:13:42.338Z,96473.28
2023-03-16T15:15:02.704Z,96463.97
2023-03-16T15:16:05.798Z,96468.69
2023-03-16T15:17:08.186Z,96467.63
2023-03-16T15:18:09.984Z,96474.44
2023-03-16T15:19:11.818Z,96463.47
2023-03-16T15:20:15.611Z,96474.09
2023-03-16T15:21:20.709Z,96474.22
2023-03-16T15:22:29.445Z,96468.03
2023-03-16T15:23:31.081Z,96472.34
2023-03-16T15:24:33.338Z,96470.50
2023-03-16T15:25:46.688Z,96476.41
2023-03-16T15:26:48.039Z,96471.31
2023-03-16T15:27:50.437Z,96471.94
2023-03-16T15:28:52.005Z,96470.06
2023-03-16T15:29:53.742Z,96467.53
2023-03-16T15:31:01.065Z,96470.41
2023-03-16T15:32:02.736Z,96471.69
2023-03-16T15:33:04.544Z,96466.63
2023-03-16T15:34:06.357Z,96462.31
2023-03-16T15:35:09.157Z,96468.53
2023-03-16T15:36:21.029Z,96474.41
2023-03-16T15:37:24.345Z,96470.47
2023-03-16T15:38:34.645Z,96472.41
2023-03-16T15:39:36.000Z,96477.25
2023-03-16T15:40:39.442Z,96468.69
2023-03-16T15:41:47.875Z,96475.22
2023-03-16T15:42:50.027Z,96470.97
2023-03-16T15:43:52.619Z,96475.41
2023-03-16T15:44:54.215Z,96472.00
2023-03-16T15:45:57.365Z,96481.03
2023-03-16T15:47:00.499Z,96476.09
2023-03-16T15:48:01.888Z,96461.19
2023-03-16T15:49:03.440Z,96471.88
2023-03-16T15:50:05.897Z,96469.72
2023-03-16T15:51:17.208Z,96471.69
2023-03-16T15:52:32.467Z,96463.88
2023-03-16T15:53:38.807Z,96476.00
2023-03-16T15:54:40.366Z,96464.25
2023-03-16T15:55:44.624Z,96470.25
2023-03-16T15:56:54.263Z,96464.56
2023-03-16T15:57:58.939Z,96465.13
2023-03-16T15:59:06.077Z,96467.09
2023-03-16T16:00:22.521Z,96470.97
2023-03-16T16:01:25.915Z,96465.41
2023-03-16T16:02:30.030Z,96464.56
2023-03-16T16:03:31.780Z,96460.25
2023-03-16T16:04:36.046Z,96471.25
2023-03-16T16:05:38.414Z,96469.66
2023-03-16T16:06:39.824Z,96470.25
2023-03-16T16:07:41.413Z,96465.25
2023-03-16T16:08:43.307Z,96467.41
2023-03-16T16:09:44.930Z,96468.66
2023-03-16T16:10:48.437Z,96473.53
2023-03-16T16:11:50.417Z,96470.84
2023-03-16T16:12:54.588Z,96467.19
2023-03-16T16:13:58.027Z,96468.53
2023-03-16T16:14:59.513Z,96450.38
2023-03-16T16:16:01.305Z,96473.69
2023-03-16T16:17:02.794Z,96472.47
2023-03-16T16:18:24.689Z,96472.91
2023-03-16T16:19:26.984Z,96470.84
2023-03-16T16:20:31.630Z,96468.38
2023-03-16T16:21:33.616Z,96468.69
2023-03-16T16:22:36.896Z,96456.16
2023-03-16T16:23:38.465Z,96470.59
2023-03-16T16:24:39.860Z,96464.34
2023-03-16T16:25:42.006Z,96472.25
2023-03-16T16:26:50.984Z,96458.81
2023-03-16T16:27:55.693Z,96462.00
2023-03-16T16:28:58.934Z,96460.50
2023-03-16T16:30:00.710Z,96452.25
2023-03-16T16:31:02.770Z,96455.25
2023-03-16T16:32:05.110Z,96445.19
2023-03-16T16:33:27.238Z,96458.03
2023-03-16T17:05:18.492Z,96445.13
2023-03-16T17:06:20.501Z,96432.97
2023-03-16T17:07:21.879Z,96450.25
2023-03-16T17:08:24.694Z,96444.28
2023-03-16T17:09:27.317Z,96443.81
2023-03-16T17:10:28.918Z,96439.66
2023-03-16T17:11:31.495Z,96442.63
2023-03-16T17:12:32.894Z,96441.56
